Flight Track Log - Related Links

Times and Time Zones

All times are in EDT time to prevent confusion due to time zone crossing. See the ASQ6168 flight status page for this flight to view local times or setup timezone preferences in your user account.

Time Position Orientation Groundspeed Altitude Reporting Facility
EDT Latitude Longitude Course Direction KTS MPH feet Rate Location/Type
Sun 03:54:53 PM 37.6339 -97.4472 234° Southwest 189 217 1,900  Level Kansas City Center
Sun 03:55:35 PM 37.6142 -97.4819 234° Southwest 181 208 3,400 1,857 Climbing Kansas City Center
Sun 03:56:17 PM 37.6183 -97.5225 277° West 242 278 4,500 1,574 Climbing Kansas City Center
Sun 03:56:36 PM 37.6444 -97.5328 343° North 260 299 5,000 1,452 Climbing Kansas City Center
Sun 03:57:19 PM 37.6917 -97.5231 North 266 306 6,000 2,066 Climbing Kansas City Center
Sun 03:57:37 PM 37.7222 -97.5131 15° North 302 348 7,100 3,097 Climbing Kansas City Center
Sun 03:58:21 PM 37.7658 -97.4992 14° North 276 318 9,200 2,038 Climbing Kansas City Center
Sun 03:59:23 PM 37.8517 -97.4708 15° North 272 313 10,700 1,694 Climbing Kansas City Center
Sun 04:00:25 PM 37.9350 -97.4428 15° North 308 354 12,700 2,129 Climbing Kansas City Center
Sun 04:01:27 PM 38.0128 -97.4194 13° North 292 336 15,100 2,226 Climbing Kansas City Center
Sun 04:02:29 PM 38.0856 -97.3964 14° North 273 314 17,300 1,839 Climbing Kansas City Center
Sun 04:03:31 PM 38.1569 -97.3744 14° North 266 306 18,900 1,742 Climbing Kansas City Center
Sun 04:04:33 PM 38.2275 -97.3514 14° North 263 303 20,900 1,597 Climbing Kansas City Center
Sun 04:05:35 PM 38.2861 -97.2572 52° Northeast 301 346 22,200 1,113 Climbing Kansas City Center
Sun 04:06:37 PM 38.3286 -97.1556 62° Northeast 323 372 23,200 968 Climbing Kansas City Center
Sun 04:07:39 PM 38.3722 -97.0483 63° Northeast 340 391 24,200 774 Climbing Kansas City Center
Sun 04:08:41 PM 38.4186 -96.9356 62° Northeast 357 411 24,800 629 Climbing Kansas City Center
Sun 04:09:43 PM 38.4744 -96.7978 63° Northeast 375 432 25,500 581 Climbing Kansas City Center
Sun 04:10:45 PM 38.5222 -96.6814 62° Northeast 383 441 26,000 532 Climbing Kansas City Center
Sun 04:11:47 PM 38.5703 -96.5617 63° Northeast 392 451 26,600 726 Climbing Kansas City Center
Sun 04:12:49 PM 38.6258 -96.4225 63° Northeast 393 452 27,500 871 Climbing Kansas City Center
Sun 04:13:51 PM 38.6731 -96.3058 63° Northeast 388 447 28,400 968 Climbing Kansas City Center
Sun 04:14:53 PM 38.7258 -96.1736 63° Northeast 375 432 29,500 968 Climbing Kansas City Center
Sun 04:15:55 PM 38.7711 -96.0608 63° Northeast 370 426 30,400 732 Climbing Kansas City Center
Sun 04:16:56 PM 38.8233 -95.9272 63° Northeast 375 432 31,000 293 Climbing Kansas City Center
Sun 04:17:58 PM 38.8706 -95.8078 63° Northeast 391 450 31,000  Level Kansas City Center
Sun 04:19:00 PM 38.9281 -95.6594 63° Northeast 414 476 31,000  Level Kansas City Center
Sun 04:20:02 PM 38.9792 -95.5303 63° Northeast 426 490 31,000  Level Kansas City Center
Sun 04:21:04 PM 39.0406 -95.3747 63° Northeast 433 498 31,000  Level Kansas City Center
Sun 04:22:06 PM 39.0931 -95.2375 64° Northeast 430 495 31,000  Level Kansas City Center
Sun 04:23:08 PM 39.1469 -95.0950 64° Northeast 431 496 31,000  Level Kansas City Center
Sun 04:24:10 PM 39.1978 -94.9647 63° Northeast 430 495 31,000  Level Kansas City Center
Sun 04:25:12 PM 39.2575 -94.8100 63° Northeast 433 498 31,000  Level Kansas City Center
Sun 04:26:14 PM 39.3081 -94.6772 64° Northeast 432 497 31,000  Level Kansas City Center
Sun 04:27:16 PM 39.3725 -94.5233 62° Northeast 434 499 31,000  Level Kansas City Center
Sun 04:28:18 PM 39.4292 -94.3839 62° Northeast 450 518 31,000  Level Kansas City Center
Sun 04:29:20 PM 39.4947 -94.2222 62° Northeast 454 522 31,000  Level Kansas City Center
Sun 04:30:22 PM 39.5508 -94.0842 62° Northeast 453 521 31,000  Level Kansas City Center
Sun 04:31:23 PM 39.6147 -93.9219 63° Northeast 453 521 31,000  Level Kansas City Center
Sun 04:32:25 PM 39.6717 -93.7822 62° Northeast 457 526 31,000  Level Kansas City Center
Sun 04:33:27 PM 39.7311 -93.6289 63° Northeast 470 541 31,000  Level Kansas City Center
Sun 04:34:29 PM 39.7914 -93.4775 63° Northeast 474 545 31,000  Level Kansas City Center
Sun 04:35:31 PM 39.8506 -93.3311 62° Northeast 467 537 31,000  Level Kansas City Center
Sun 04:36:33 PM 39.9192 -93.1497 64° Northeast 469 540 31,000  Level Kansas City Center
Sun 04:37:35 PM 39.9767 -93.0019 63° Northeast 464 534 31,000  Level Kansas City Center
Sun 04:38:37 PM 40.0353 -92.8511 63° Northeast 469 540 31,000  Level Kansas City Center
Sun 04:39:39 PM 40.0931 -92.6978 64° Northeast 464 534 31,000  Level Kansas City Center
Sun 04:40:41 PM 40.1589 -92.5272 63° Northeast 469 540 31,000  Level Kansas City Center
Sun 04:41:42 PM 40.2128 -92.3814 64° Northeast 467 537 31,000  Level Kansas City Center
Sun 04:42:44 PM 40.2675 -92.2250 65° Northeast 469 540 31,000  Level Kansas City Center
Sun 04:43:46 PM 40.3217 -92.0725 65° Northeast 468 539 31,000  Level Kansas City Center
Sun 04:44:48 PM 40.3761 -91.9189 65° Northeast 470 541 31,000  Level Kansas City Center
Sun 04:45:50 PM 40.4408 -91.7339 65° Northeast 470 541 31,000  Level Kansas City Center
Sun 04:46:45 PM 40.4850 -91.6094 65° Northeast 472 543 31,000  Level Chicago Center
Sun 04:47:47 PM 40.5375 -91.4528 66° East 471 542 31,000  Level Chicago Center
Sun 04:48:49 PM 40.5972 -91.2756 66° East 470 541 31,000  Level Chicago Center
Sun 04:49:51 PM 40.6519 -91.1178 65° Northeast 474 545 31,000  Level Chicago Center
Sun 04:50:53 PM 40.7061 -90.9581 66° East 478 550 31,000  Level Chicago Center
Sun 04:51:55 PM 40.7603 -90.7983 66° East 477 549 31,000 -48 Level Chicago Center
Sun 04:52:57 PM 40.8239 -90.6072 66° East 473 544 30,900 -432 Descending Chicago Center
Sun 04:54:00 PM 40.8772 -90.4483 66° East 471 542 30,100 -1,104 Descending Chicago Center
Sun 04:55:02 PM 40.9303 -90.2883 66° East 471 542 28,600 -1,355 Descending Chicago Center
Sun 04:56:04 PM 40.9800 -90.1397 66° East 460 529 27,300 -1,403 Descending Chicago Center
Sun 04:57:06 PM 41.0344 -89.9742 66° East 462 532 25,700 -1,355 Descending Chicago Center
Sun 04:58:08 PM 41.0869 -89.8131 67° East 469 540 24,500 -823 Descending Chicago Center
Sun 04:59:10 PM 41.1378 -89.6578 66° East 458 527 24,000 -726 Descending Chicago Center
Sun 05:00:12 PM 41.1900 -89.5156 64° Northeast 435 501 23,000 -1,645 Descending Chicago Center
Sun 05:01:14 PM 41.2556 -89.3519 62° Northeast 417 480 20,600 -2,371 Descending Chicago Center
Sun 05:02:16 PM 41.3089 -89.2186 62° Northeast 410 472 18,100 -2,371 Descending Chicago Center
Sun 05:03:18 PM 41.3656 -89.0769 62° Northeast 405 466 15,700 -2,129 Descending Chicago Center
Sun 05:04:20 PM 41.4161 -88.9528 61° Northeast 387 445 13,700 -1,984 Descending Chicago Center
Sun 05:05:22 PM 41.4625 -88.8336 63° Northeast 368 423 11,600 -1,355 Descending Chicago Center
Sun 05:06:24 PM 41.5097 -88.7144 62° Northeast 367 422 10,900 -242 Descending Chicago Center
Sun 05:07:26 PM 41.5547 -88.5967 63° Northeast 359 413 11,100 -336 Climbing Chicago Center
Sun 05:08:29 PM 41.6025 -88.4814 61° Northeast 359 413 10,200 -528 Descending Chicago Center
Sun 05:09:31 PM 41.6711 -88.3611 53° Northeast 341 392 10,000 -145 Descending Chicago Center
Sun 05:10:33 PM 41.7314 -88.2561 52° Northeast 352 405 9,900 -339 Descending Chicago Center
Sun 05:11:35 PM 41.7825 -88.1667 53° Northeast 302 348 9,300 -1,065 Descending Chicago Center
Sun 05:12:37 PM 41.8239 -88.0842 56° Northeast 268 308 7,700 -1,161 Descending Chicago Center
Sun 05:13:39 PM 41.8439 -87.9872 74° East 268 308 6,900 -339 Descending Chicago Center
Sun 05:14:41 PM 41.8653 -87.8892 74° East 273 314 7,000 -412 Climbing Chicago Center
Sun 05:15:21 PM 41.8833 -87.8167 71° East 237 273 6,200 -1,915 Descending Chicago TRACON
Sun 05:16:15 PM 41.8833 -87.7333 90° East 249 287 4,000 -1,737 Descending Chicago TRACON
Sun 05:17:15 PM 41.9333 -87.7167 14° North 205 236 2,900 -800 Descending Chicago TRACON
Sun 05:18:15 PM 41.9667 -87.7667 312° West 172 198 2,400 -550 Descending Chicago TRACON
Sun 05:19:15 PM 41.9667 -87.8167 270° West 131 151 1,800 -667 Descending Chicago TRACON
Sun 05:20:21 PM 41.9667 -87.8667 270° West 128 147 1,000 -727 Descending Chicago TRACON
Sun 05:22:00 PM 41.9667 -87.9000 37° Northeast  Level FlightAware Approximate

Login

Don't have an account? Register now (free) for customized features, flight alerts, and more!